Time;durP1;ratioP1;P1;durP2;ratioP2;P2;SDS_P1;SDS_P2;PMS_P1;PMS_P2;Temp;Humidity;BMP_temperature;BMP_pressure;BME280_temperature;BME280_humidity;BME280_pressure;Samples;Min_cycle;Max_cycle;Signal;HPM_P1;HPM_P2
2023/08/27 00:00:10;;;;;;;9.57;6.72;;;16.50;99.90;;;;;;5023541;28;20589;-65
2023/08/27 00:02:42;;;;;;;;;;;16.50;99.90;;;;;;5022199;28;20049;-65
2023/08/27 00:05:10;;;;;;;9.85;7.00;;;16.50;99.90;;;;;;5011655;28;19929;-65
2023/08/27 00:07:42;;;;;;;9.52;6.80;;;16.50;99.90;;;;;;5018528;28;20045;-65
2023/08/27 00:10:15;;;;;;;9.40;6.15;;;16.50;99.90;;;;;;5010381;28;20049;-65
2023/08/27 00:12:47;;;;;;;7.45;6.10;;;16.50;99.90;;;;;;5021679;28;20037;-65
2023/08/27 00:15:19;;;;;;;6.82;6.13;;;16.50;99.90;;;;;;5005833;28;20049;-65
2023/08/27 00:17:50;;;;;;;13.27;6.53;;;16.50;99.90;;;;;;5012249;28;20046;-65
2023/08/27 00:20:17;;;;;;;6.55;5.68;;;16.50;99.90;;;;;;5018049;28;20038;-65
2023/08/27 00:22:44;;;;;;;7.63;6.28;;;16.50;99.90;;;;;;5026348;28;20140;-65
2023/08/27 00:25:16;;;;;;;9.45;7.78;;;16.50;99.90;;;;;;5007493;28;20524;-65
2023/08/27 00:27:48;;;;;;;7.38;6.45;;;16.50;99.90;;;;;;5011573;28;20049;-65
2023/08/27 00:30:20;;;;;;;9.65;7.38;;;16.50;99.90;;;;;;4994697;28;20042;-65
2023/08/27 00:32:52;;;;;;;9.95;7.38;;;16.50;99.90;;;;;;5001602;28;20511;-67
2023/08/27 00:35:24;;;;;;;8.30;6.80;;;16.50;99.90;;;;;;5009558;28;20100;-65
2023/08/27 00:37:51;;;;;;;8.93;7.00;;;16.50;99.90;;;;;;5007246;28;20050;-65
2023/08/27 00:40:22;;;;;;;11.30;7.82;;;16.50;99.90;;;;;;5010985;28;20050;-65
2023/08/27 00:42:55;;;;;;;8.32;7.45;;;16.50;99.90;;;;;;5002710;28;20045;-65
2023/08/27 00:45:27;;;;;;;7.82;6.78;;;16.50;99.90;;;;;;5003073;28;20102;-65
2023/08/27 00:48:00;;;;;;;8.35;6.88;;;16.50;99.90;;;;;;5007960;28;20053;-65
2023/08/27 00:50:27;;;;;;;8.43;6.57;;;16.50;99.90;;;;;;5009678;28;20066;-65
2023/08/27 00:52:59;;;;;;;7.63;5.93;;;16.50;99.90;;;;;;5012606;28;20057;-65
2023/08/27 00:55:26;;;;;;;8.93;6.90;;;16.40;99.90;;;;;;5002395;28;20069;-65
2023/08/27 00:57:58;;;;;;;8.18;6.65;;;16.50;99.90;;;;;;5023852;28;20038;-65
2023/08/27 01:00:30;;;;;;;8.07;7.03;;;16.50;99.90;;;;;;5009021;28;20522;-65
2023/08/27 01:03:03;;;;;;;9.60;7.32;;;16.40;99.90;;;;;;5025452;28;20041;-66
2023/08/27 01:05:36;;;;;;;8.73;6.43;;;16.40;99.90;;;;;;4988240;28;20034;-65
2023/08/27 01:08:29;;;;;;;8.75;6.18;;;16.50;99.90;;;;;;5004827;28;20585;-65
2023/08/27 01:11:25;;;;;;;7.32;5.80;;;16.50;99.90;;;;;;5014938;28;20037;-65
2023/08/27 01:14:03;;;;;;;7.85;6.30;;;16.50;99.90;;;;;;4997696;28;20049;-65
2023/08/27 01:16:36;;;;;;;7.40;6.38;;;16.50;99.90;;;;;;5004929;28;20038;-65
2023/08/27 01:19:13;;;;;;;9.80;6.65;;;16.40;99.90;;;;;;5015167;28;20037;-65
2023/08/27 01:21:47;;;;;;;8.05;6.22;;;16.30;99.90;;;;;;4990661;28;20655;-65
2023/08/27 01:24:14;;;;;;;6.68;5.75;;;16.30;99.90;;;;;;5014821;28;20478;-65
2023/08/27 01:26:50;;;;;;;8.82;6.57;;;16.30;99.90;;;;;;4993044;28;20095;-67
2023/08/27 01:29:24;;;;;;;10.52;6.47;;;16.30;99.90;;;;;;5005411;28;20075;-65
2023/08/27 01:31:59;;;;;;;8.27;7.35;;;16.30;99.90;;;;;;5003604;28;20130;-65
2023/08/27 01:34:32;;;;;;;10.05;6.93;;;16.40;99.90;;;;;;4997812;28;20041;-65
2023/08/27 01:37:05;;;;;;;7.82;6.15;;;16.40;99.90;;;;;;5007135;28;20045;-65
2023/08/27 01:39:37;;;;;;;9.23;7.27;;;16.40;99.90;;;;;;5006325;28;20144;-65
2023/08/27 01:42:09;;;;;;;8.75;7.22;;;16.40;99.90;;;;;;5015092;28;20696;-65
2023/08/27 01:44:41;;;;;;;9.50;7.78;;;16.40;99.90;;;;;;5013501;28;20116;-66
2023/08/27 01:47:13;;;;;;;10.00;7.32;;;16.40;99.90;;;;;;5007896;28;20033;-66
2023/08/27 01:49:45;;;;;;;7.43;6.68;;;16.40;99.90;;;;;;5022985;28;20034;-65
2023/08/27 01:52:17;;;;;;;13.05;8.30;;;16.30;99.90;;;;;;4997200;28;20852;-65
2023/08/27 01:54:45;;;;;;;9.35;7.65;;;16.30;99.90;;;;;;5012003;28;20528;-65
2023/08/27 01:57:17;;;;;;;8.70;6.80;;;16.30;99.90;;;;;;4981491;28;20054;-65
2023/08/27 01:59:49;;;;;;;7.78;7.00;;;16.30;99.90;;;;;;5012252;28;20057;-65
2023/08/27 02:02:21;;;;;;;8.57;6.80;;;16.30;99.90;;;;;;5013906;28;20124;-65
2023/08/27 02:04:52;;;;;;;9.15;6.93;;;16.40;99.90;;;;;;5013803;28;20088;-65
2023/08/27 02:07:20;;;;;;;10.20;7.05;;;16.30;99.90;;;;;;5012213;28;20053;-65
2023/08/27 02:09:51;;;;;;;6.82;6.13;;;16.40;99.90;;;;;;4991400;28;20077;-65
2023/08/27 02:12:18;;;;;;;6.70;6.00;;;16.40;99.90;;;;;;5013441;28;20505;-65
2023/08/27 02:14:50;;;;;;;7.47;6.05;;;16.40;99.90;;;;;;5003562;28;20050;-65
2023/08/27 02:17:22;;;;;;;7.35;6.43;;;16.40;99.90;;;;;;5021604;28;20042;-65
2023/08/27 02:19:48;;;;;;;8.75;7.00;;;16.40;99.90;;;;;;4996455;28;20038;-65
2023/08/27 02:22:21;;;;;;;9.13;6.65;;;16.40;99.90;;;;;;5006029;28;20540;-65
2023/08/27 02:24:47;;;;;;;8.52;7.03;;;16.30;99.90;;;;;;5012691;28;20050;-65
2023/08/27 02:27:19;;;;;;;6.22;5.63;;;16.30;99.90;;;;;;5023147;28;20037;-65
2023/08/27 02:29:51;;;;;;;7.97;6.47;;;16.40;99.90;;;;;;5006677;28;20107;-64
2023/08/27 02:32:24;;;;;;;8.02;6.13;;;16.40;99.90;;;;;;5013259;28;20059;-65
2023/08/27 02:34:55;;;;;;;7.65;6.45;;;16.50;99.90;;;;;;5013057;28;20052;-64
2023/08/27 02:37:27;;;;;;;6.50;5.63;;;16.50;99.90;;;;;;5011000;28;20046;-65
2023/08/27 02:39:59;;;;;;;8.30;6.30;;;16.50;99.90;;;;;;5012261;28;20056;-64
2023/08/27 02:42:31;;;;;;;7.28;6.35;;;16.50;99.90;;;;;;4995291;28;20038;-64
2023/08/27 02:45:03;;;;;;;8.68;7.15;;;16.50;99.90;;;;;;5013651;28;20042;-64
2023/08/27 02:47:35;;;;;;;8.25;6.60;;;16.40;99.90;;;;;;5007852;28;20498;-64
2023/08/27 02:50:03;;;;;;;8.18;7.07;;;16.40;99.90;;;;;;5013295;28;20045;-64
2023/08/27 02:52:35;;;;;;;7.95;6.50;;;16.40;99.90;;;;;;5024912;28;20113;-65
2023/08/27 02:55:07;;;;;;;9.48;7.25;;;16.40;99.90;;;;;;5025189;28;20427;-64
2023/08/27 02:57:39;;;;;;;8.02;6.95;;;16.40;99.90;;;;;;5005516;28;20060;-64
2023/08/27 03:00:12;;;;;;;7.97;6.50;;;16.30;99.90;;;;;;5003613;28;20050;-65
2023/08/27 03:02:44;;;;;;;7.65;6.00;;;16.40;99.90;;;;;;5000574;28;20462;-64
2023/08/27 03:05:16;;;;;;;7.03;5.93;;;16.40;99.90;;;;;;4994251;28;20060;-64
2023/08/27 03:07:48;;;;;;;7.03;6.13;;;16.40;99.90;;;;;;5003323;28;20041;-64
2023/08/27 03:10:22;;;;;;;7.38;6.18;;;16.50;99.90;;;;;;5006254;28;20049;-64
2023/08/27 03:12:54;;;;;;;6.45;5.85;;;16.50;99.90;;;;;;5006547;28;20050;-64
2023/08/27 03:15:26;;;;;;;6.53;5.88;;;16.40;99.90;;;;;;5012500;28;20059;-64
2023/08/27 03:17:58;;;;;;;9.15;6.05;;;16.50;99.90;;;;;;5006495;28;20049;-64
2023/08/27 03:20:30;;;;;;;9.85;6.60;;;16.40;99.90;;;;;;4991079;28;20045;-64
2023/08/27 03:23:02;;;;;;;7.45;6.07;;;16.30;99.90;;;;;;5012847;28;20054;-65
2023/08/27 03:25:34;;;;;;;8.73;6.88;;;16.30;99.90;;;;;;5010891;28;20104;-64
2023/08/27 03:28:06;;;;;;;8.52;6.80;;;16.30;99.90;;;;;;5017383;28;20046;-64
2023/08/27 03:30:39;;;;;;;7.32;6.35;;;16.10;99.90;;;;;;5002522;28;20045;-64
2023/08/27 03:33:12;;;;;;;6.15;5.55;;;16.10;99.90;;;;;;5013201;28;20077;-64
2023/08/27 03:35:57;;;;;;;6.18;5.43;;;16.00;99.90;;;;;;5007239;28;20061;-64
2023/08/27 03:38:30;;;;;;;6.60;5.15;;;16.00;99.90;;;;;;5012507;28;20061;-64
2023/08/27 03:41:01;;;;;;;5.97;5.05;;;16.00;99.90;;;;;;4990819;28;20064;-64
2023/08/27 03:43:33;;;;;;;8.05;4.80;;;16.00;99.90;;;;;;5011924;28;20095;-65
2023/08/27 03:46:05;;;;;;;6.28;4.82;;;16.00;99.90;;;;;;5003006;28;20034;-64
2023/08/27 03:48:37;;;;;;;5.53;4.18;;;16.00;99.90;;;;;;4988963;28;20065;-65
2023/08/27 03:51:10;;;;;;;5.63;4.40;;;16.00;99.90;;;;;;5020522;28;20038;-64
2023/08/27 03:53:37;;;;;;;6.07;4.63;;;16.10;99.90;;;;;;5011158;28;20507;-64
2023/08/27 03:56:09;;;;;;;6.43;4.38;;;16.10;99.90;;;;;;5012482;28;20045;-64
2023/08/27 03:58:41;;;;;;;4.55;3.55;;;16.10;99.90;;;;;;4990489;28;20042;-65
2023/08/27 04:01:13;;;;;;;5.13;4.07;;;16.20;99.90;;;;;;5022050;28;20391;-65
2023/08/27 04:03:45;;;;;;;5.05;4.00;;;16.20;99.90;;;;;;5007967;28;20045;-65
2023/08/27 04:06:17;;;;;;;4.75;3.90;;;16.30;99.90;;;;;;5008812;28;20128;-64
2023/08/27 04:08:49;;;;;;;4.93;4.43;;;16.30;99.90;;;;;;4985614;28;20534;-64
2023/08/27 04:11:21;;;;;;;5.28;3.45;;;16.30;99.90;;;;;;4993938;28;20140;-65
2023/08/27 04:13:47;;;;;;;5.72;4.32;;;16.30;99.90;;;;;;4981916;28;20067;-64
2023/08/27 04:16:21;;;;;;;4.72;3.80;;;16.30;99.90;;;;;;5010829;28;20042;-65
2023/08/27 04:18:47;;;;;;;5.03;4.15;;;16.40;99.90;;;;;;5011923;28;20041;-64
2023/08/27 04:21:14;;;;;;;4.93;4.15;;;16.40;99.90;;;;;;5024210;28;20573;-65
2023/08/27 04:23:46;;;;;;;4.25;3.65;;;16.40;99.90;;;;;;5017163;28;20065;-65
2023/08/27 04:26:18;;;;;;;4.88;3.22;;;16.40;99.90;;;;;;5009102;28;20037;-64
2023/08/27 04:28:50;;;;;;;4.93;3.50;;;16.40;99.90;;;;;;4996331;28;20052;-64
2023/08/27 04:31:22;;;;;;;4.18;3.55;;;16.40;99.90;;;;;;5012348;28;20048;-64
2023/08/27 04:33:54;;;;;;;4.60;4.07;;;16.40;99.90;;;;;;4998964;28;20074;-66
2023/08/27 04:36:26;;;;;;;6.38;4.15;;;16.40;99.90;;;;;;5020904;28;20063;-65
2023/08/27 04:38:58;;;;;;;6.60;3.95;;;16.40;99.90;;;;;;4999586;28;20445;-65
2023/08/27 04:41:24;;;;;;;5.78;4.55;;;16.40;99.90;;;;;;5012501;28;20133;-65
2023/08/27 04:43:56;;;;;;;5.20;4.63;;;16.40;99.90;;;;;;4994900;28;20061;-64
2023/08/27 04:46:28;;;;;;;6.30;4.50;;;16.30;99.90;;;;;;5010420;28;20041;-65
2023/08/27 04:49:00;;;;;;;4.85;3.83;;;16.30;99.90;;;;;;5001321;28;20037;-64
2023/08/27 04:51:29;;;;;;;6.22;4.22;;;16.30;99.90;;;;;;5012640;28;20045;-64
2023/08/27 04:54:01;;;;;;;4.85;4.03;;;16.30;99.90;;;;;;5037477;23;20513;-64
2023/08/27 04:56:33;;;;;;;6.22;4.35;;;16.30;99.90;;;;;;5046203;28;20033;-65
2023/08/27 04:59:06;;;;;;;6.90;5.20;;;16.30;99.90;;;;;;5033546;28;20041;-64
2023/08/27 05:01:38;;;;;;;5.50;4.63;;;16.30;99.90;;;;;;5043338;28;20044;-65
2023/08/27 05:04:05;;;;;;;5.78;4.82;;;16.20;99.90;;;;;;5022692;28;20041;-64
2023/08/27 05:06:37;;;;;;;5.87;4.90;;;16.20;99.90;;;;;;5039967;28;20080;-64
2023/08/27 05:09:05;;;;;;;6.13;4.55;;;16.20;99.90;;;;;;5045586;28;20034;-64
2023/08/27 05:11:37;;;;;;;5.03;4.53;;;16.20;99.90;;;;;;5032831;28;20556;-64
2023/08/27 05:14:08;;;;;;;5.22;3.92;;;16.20;99.90;;;;;;5037221;28;20046;-64
2023/08/27 05:16:41;;;;;;;4.75;4.25;;;16.20;99.90;;;;;;5039385;28;20045;-64
2023/08/27 05:19:12;;;;;;;5.47;4.10;;;16.20;99.90;;;;;;5037043;28;20048;-64
2023/08/27 05:21:39;;;;;;;4.55;4.07;;;16.30;99.90;;;;;;5036057;28;20128;-65
2023/08/27 05:24:11;;;;;;;4.90;4.35;;;16.30;99.90;;;;;;5040889;28;20068;-64
2023/08/27 05:26:44;;;;;;;5.32;4.05;;;16.30;99.90;;;;;;5020640;28;20049;-65
2023/08/27 05:29:16;;;;;;;4.90;3.63;;;16.30;99.90;;;;;;5044292;28;20041;-65
2023/08/27 05:31:48;;;;;;;5.03;3.72;;;16.30;99.90;;;;;;5035659;28;20057;-64
2023/08/27 05:34:19;;;;;;;5.65;3.50;;;16.40;99.90;;;;;;5051857;28;20544;-64
2023/08/27 05:36:52;;;;;;;4.75;3.50;;;16.40;99.90;;;;;;5031740;28;20067;-64
2023/08/27 05:39:19;;;;;;;5.32;3.20;;;16.40;99.90;;;;;;5042913;28;20099;-64
2023/08/27 05:41:46;;;;;;;4.60;3.17;;;16.40;99.90;;;;;;5045479;28;20076;-64
2023/08/27 05:44:18;;;;;;;6.10;4.38;;;16.40;99.90;;;;;;5040654;28;20518;-64
2023/08/27 05:46:50;;;;;;;4.53;3.53;;;16.40;99.90;;;;;;5039315;28;20046;-64
2023/08/27 05:49:23;;;;;;;;;;;16.50;99.90;;;;;;5042254;28;20581;-64
2023/08/27 05:51:55;;;;;;;3.42;3.10;;;16.50;99.90;;;;;;5040718;28;19920;-64
2023/08/27 05:54:22;;;;;;;3.65;3.10;;;16.50;99.90;;;;;;5039356;28;20038;-64
2023/08/27 05:56:55;;;;;;;4.78;3.20;;;16.50;99.90;;;;;;5024397;28;20056;-64
2023/08/27 05:59:27;;;;;;;5.22;3.60;;;16.50;99.90;;;;;;5035002;28;20373;-64
2023/08/27 06:01:59;;;;;;;5.40;3.92;;;16.40;99.90;;;;;;5033138;28;20133;-64
2023/08/27 06:04:31;;;;;;;3.85;3.08;;;16.40;99.90;;;;;;5047529;28;20045;-64
2023/08/27 06:07:03;;;;;;;4.43;3.30;;;16.40;99.90;;;;;;5037911;28;20604;-64
2023/08/27 06:09:30;;;;;;;5.15;3.60;;;16.40;99.90;;;;;;5038243;28;20029;-64
2023/08/27 06:11:58;;;;;;;3.83;3.20;;;16.30;99.90;;;;;;5039871;28;20073;-64
2023/08/27 06:14:30;;;;;;;3.90;3.50;;;16.40;99.90;;;;;;5047533;28;20044;-65
2023/08/27 06:17:02;;;;;;;4.28;3.40;;;16.40;99.90;;;;;;5042312;28;20045;-64
2023/08/27 06:19:34;;;;;;;4.05;3.45;;;16.40;99.90;;;;;;5031886;28;20045;-64
2023/08/27 06:22:06;;;;;;;4.70;3.40;;;16.40;99.90;;;;;;5040427;28;20068;-64
2023/08/27 06:24:38;;;;;;;4.05;3.20;;;16.50;99.90;;;;;;5024566;28;20045;-64
2023/08/27 06:27:10;;;;;;;3.90;3.00;;;16.50;99.90;;;;;;5035765;28;20584;-65
2023/08/27 06:29:45;;;;;;;3.55;2.90;;;16.50;99.90;;;;;;5031555;28;20478;-64
2023/08/27 06:32:17;;;;;;;5.55;2.80;;;16.40;99.90;;;;;;5039652;28;20033;-64
2023/08/27 06:34:49;;;;;;;3.55;2.67;;;16.40;99.90;;;;;;5042950;28;20128;-64
2023/08/27 06:37:21;;;;;;;3.20;2.30;;;16.40;99.90;;;;;;5035815;28;20050;-64
2023/08/27 06:39:53;;;;;;;2.95;2.50;;;16.40;99.90;;;;;;5038793;28;20061;-64
2023/08/27 06:42:25;;;;;;;3.33;2.60;;;16.40;99.90;;;;;;5037591;28;20046;-64
2023/08/27 06:44:58;;;;;;;2.80;2.28;;;16.40;99.90;;;;;;5037305;28;20099;-64
2023/08/27 06:47:30;;;;;;;2.90;2.60;;;16.40;99.90;;;;;;5033235;28;20505;-64
2023/08/27 06:50:04;;;;;;;3.65;2.58;;;16.40;99.90;;;;;;5038486;28;20037;-64
2023/08/27 06:52:36;;;;;;;2.75;2.38;;;16.40;99.90;;;;;;5041450;28;20061;-64
2023/08/27 06:55:10;;;;;;;3.03;2.38;;;16.30;99.90;;;;;;5038615;28;20053;-64
2023/08/27 06:57:42;;;;;;;3.45;2.10;;;16.30;99.90;;;;;;5044150;28;20137;-64
2023/08/27 07:00:14;;;;;;;6.97;1.92;;;16.30;99.90;;;;;;5031157;28;20049;-63
2023/08/27 07:02:46;;;;;;;3.10;2.03;;;16.30;99.90;;;;;;5039003;28;20721;-64
2023/08/27 07:05:13;;;;;;;2.25;1.92;;;16.30;99.90;;;;;;5037987;28;20067;-64
2023/08/27 07:07:42;;;;;;;4.90;2.30;;;16.30;99.90;;;;;;5041008;28;20033;-64
2023/08/27 07:10:14;;;;;;;;;;;16.30;99.90;;;;;;5051343;28;20044;-64
2023/08/27 07:12:46;;;;;;;2.03;1.80;;;16.30;99.90;;;;;;5043812;28;20401;-64
2023/08/27 07:15:13;;;;;;;1.90;1.52;;;16.30;99.90;;;;;;5037810;28;20041;-64
2023/08/27 07:17:41;;;;;;;3.28;1.70;;;16.30;99.90;;;;;;5036934;28;20131;-64
2023/08/27 07:20:13;;;;;;;4.40;1.75;;;16.40;99.90;;;;;;5038842;28;20064;-64
2023/08/27 07:22:45;;;;;;;2.92;1.67;;;16.40;99.90;;;;;;5042570;28;20136;-64
2023/08/27 07:25:17;;;;;;;2.10;1.63;;;16.40;99.90;;;;;;5029303;28;20045;-64
2023/08/27 07:27:49;;;;;;;1.77;1.30;;;16.30;99.90;;;;;;5044018;28;20083;-64
2023/08/27 07:30:21;;;;;;;3.50;1.58;;;16.30;99.90;;;;;;5038799;28;20041;-64
2023/08/27 07:32:53;;;;;;;2.13;1.80;;;16.30;99.90;;;;;;5043207;28;20413;-64
2023/08/27 07:35:25;;;;;;;1.50;1.40;;;16.40;99.90;;;;;;5031929;28;20505;-64
2023/08/27 07:37:58;;;;;;;1.83;1.58;;;16.40;99.90;;;;;;5036605;28;20046;-64
2023/08/27 07:40:35;;;;;;;1.80;1.58;;;16.50;99.90;;;;;;5046392;28;20483;-64
2023/08/27 07:43:07;;;;;;;4.95;1.75;;;16.50;99.90;;;;;;5026256;28;20052;-64
2023/08/27 07:45:39;;;;;;;2.20;1.40;;;16.60;99.90;;;;;;5045628;28;20110;-64
2023/08/27 07:48:11;;;;;;;3.42;1.73;;;16.60;99.90;;;;;;5024252;28;20037;-64
2023/08/27 07:50:44;;;;;;;4.60;2.17;;;16.70;99.90;;;;;;5038527;28;20459;-64
2023/08/27 07:53:11;;;;;;;1.83;1.70;;;16.70;99.90;;;;;;5035229;28;20038;-64
2023/08/27 07:55:43;;;;;;;3.85;1.70;;;16.70;99.90;;;;;;5033303;28;20365;-64
2023/08/27 07:58:15;;;;;;;1.80;1.30;;;16.80;99.90;;;;;;5018688;28;20052;-64
2023/08/27 08:00:47;;;;;;;2.17;1.70;;;16.80;99.90;;;;;;5038784;28;20761;-64
2023/08/27 08:03:19;;;;;;;1.90;1.40;;;16.80;99.90;;;;;;5028386;28;20136;-63
2023/08/27 08:05:51;;;;;;;1.98;1.40;;;16.90;99.90;;;;;;5042391;28;20135;-64
2023/08/27 08:08:22;;;;;;;4.60;1.40;;;16.90;99.90;;;;;;5041767;28;20043;-64
2023/08/27 08:10:55;;;;;;;1.92;1.30;;;16.90;99.90;;;;;;5038451;28;20045;-64
2023/08/27 08:13:27;;;;;;;2.75;1.48;;;17.00;99.90;;;;;;5040080;28;20041;-64
2023/08/27 08:15:59;;;;;;;2.28;1.20;;;17.00;99.90;;;;;;5039662;28;20132;-64
2023/08/27 08:18:31;;;;;;;2.88;1.75;;;17.00;99.90;;;;;;5050370;28;20134;-64
2023/08/27 08:21:04;;;;;;;1.80;1.50;;;17.00;99.90;;;;;;5033210;28;20120;-65
2023/08/27 08:23:36;;;;;;;2.10;1.50;;;17.00;99.90;;;;;;5035761;28;20033;-65
2023/08/27 08:26:09;;;;;;;2.25;1.42;;;17.00;99.90;;;;;;5040162;28;20041;-64
2023/08/27 08:28:41;;;;;;;3.33;1.40;;;16.90;99.90;;;;;;5040234;28;20041;-64
2023/08/27 08:31:13;;;;;;;2.97;1.50;;;16.80;99.90;;;;;;5039580;28;20034;-64
2023/08/27 08:33:45;;;;;;;2.25;1.40;;;16.80;99.90;;;;;;5038636;28;20040;-64
2023/08/27 08:36:16;;;;;;;2.38;1.55;;;16.80;99.90;;;;;;5038152;28;20470;-64
2023/08/27 08:38:48;;;;;;;2.10;1.50;;;16.80;99.90;;;;;;5036489;28;20471;-64
2023/08/27 08:41:25;;;;;;;2.20;1.67;;;16.90;99.90;;;;;;5035903;28;20432;-64
2023/08/27 08:44:35;;;;;;;2.72;1.80;;;16.80;99.90;;;;;;5033378;28;20033;-64
2023/08/27 08:47:09;;;;;;;4.03;2.10;;;16.70;99.90;;;;;;5004105;28;20050;-64
2023/08/27 08:49:44;;;;;;;2.88;1.70;;;16.60;99.90;;;;;;5039405;28;20048;-64
2023/08/27 08:52:20;;;;;;;2.38;1.67;;;16.60;99.90;;;;;;5038173;28;20036;-64
2023/08/27 08:54:54;;;;;;;3.80;1.95;;;16.60;99.90;;;;;;5037024;28;20037;-64
2023/08/27 08:57:29;;;;;;;2.58;1.95;;;16.50;99.90;;;;;;5038368;28;20044;-64
2023/08/27 09:00:02;;;;;;;3.08;1.92;;;16.50;99.90;;;;;;5037533;28;20046;-64
2023/08/27 09:02:36;;;;;;;3.03;1.58;;;16.50;99.90;;;;;;5052488;28;20065;-63
2023/08/27 09:05:05;;;;;;;4.47;1.77;;;16.50;99.90;;;;;;5033994;28;20045;-64
2023/08/27 09:07:38;;;;;;;2.88;1.60;;;16.50;99.90;;;;;;5031877;28;20421;-64
2023/08/27 09:10:11;;;;;;;;;;;16.60;99.90;;;;;;5035687;28;20516;-64
2023/08/27 09:12:40;;;;;;;2.95;1.48;;;16.50;99.90;;;;;;5036806;28;20657;-64
2023/08/27 09:15:10;;;;;;;3.00;1.70;;;16.60;99.90;;;;;;5038873;28;20379;-64
2023/08/27 09:17:41;;;;;;;2.58;1.80;;;16.60;99.90;;;;;;5040977;28;20064;-64
2023/08/27 09:20:14;;;;;;;3.22;1.75;;;16.70;99.90;;;;;;5043448;28;20041;-64
2023/08/27 09:22:46;;;;;;;3.73;1.87;;;16.70;99.90;;;;;;5042294;28;20390;-64
2023/08/27 09:25:18;;;;;;;4.22;2.00;;;16.70;99.90;;;;;;5047384;28;20040;-65
2023/08/27 09:27:50;;;;;;;4.45;2.75;;;16.70;99.90;;;;;;5039107;28;20037;-64
2023/08/27 09:30:23;;;;;;;2.42;1.50;;;16.70;99.90;;;;;;5037839;28;20040;-64
2023/08/27 09:32:55;;;;;;;1.95;1.45;;;16.70;99.90;;;;;;5042036;28;20042;-64
2023/08/27 09:35:38;;;;;;;3.05;1.95;;;16.70;99.90;;;;;;5039730;28;20041;-64
2023/08/27 09:38:15;;;;;;;2.63;1.35;;;16.70;99.90;;;;;;5040083;28;20519;-64
2023/08/27 09:40:47;;;;;;;3.88;1.85;;;16.70;99.90;;;;;;5043603;28;20041;-64
2023/08/27 09:43:14;;;;;;;1.90;1.40;;;16.70;99.90;;;;;;5042502;28;20065;-64
2023/08/27 09:45:41;;;;;;;2.25;1.60;;;16.60;99.90;;;;;;5041800;28;20167;-64
2023/08/27 09:48:22;;;;;;;2.60;1.42;;;16.50;99.90;;;;;;5039318;28;20044;-64
2023/08/27 09:51:05;;;;;;;1.70;1.40;;;16.60;99.90;;;;;;5039258;28;20033;-64
2023/08/27 09:53:37;;;;;;;2.35;1.65;;;16.60;99.90;;;;;;5037725;28;20040;-64
2023/08/27 09:56:09;;;;;;;2.92;1.70;;;16.60;99.90;;;;;;5040499;28;20079;-64
2023/08/27 09:58:39;;;;;;;3.25;1.70;;;16.60;99.90;;;;;;5042232;28;20413;-64
2023/08/27 10:01:11;;;;;;;4.88;1.52;;;16.60;99.90;;;;;;5040671;28;20387;-64
2023/08/27 10:03:38;;;;;;;3.08;1.52;;;16.70;99.90;;;;;;5036444;28;20056;-64
2023/08/27 10:06:09;;;;;;;3.42;1.60;;;16.60;99.90;;;;;;5037555;28;20052;-64
2023/08/27 10:08:49;;;;;;;2.17;1.50;;;16.60;99.90;;;;;;5041728;28;20490;-64
2023/08/27 10:11:22;;;;;;;2.97;1.92;;;16.60;99.90;;;;;;5038994;28;20038;-64
2023/08/27 10:13:57;;;;;;;;;;;16.60;99.90;;;;;;5033894;28;20401;-64
2023/08/27 10:16:30;;;;;;;3.30;1.90;;;16.70;99.90;;;;;;5040560;28;20530;-64
2023/08/27 10:19:05;;;;;;;;;;;16.60;99.90;;;;;;5040327;28;20557;-64
2023/08/27 10:21:32;;;;;;;2.45;1.60;;;16.60;99.90;;;;;;5040489;28;19921;-64
2023/08/27 10:24:06;;;;;;;2.85;1.80;;;16.60;99.90;;;;;;5036601;28;20034;-64
2023/08/27 10:26:40;;;;;;;4.55;2.00;;;16.60;99.90;;;;;;5036160;28;20046;-64
2023/08/27 10:29:12;;;;;;;3.95;1.80;;;16.50;99.90;;;;;;5035235;28;20045;-64
2023/08/27 10:31:39;;;;;;;2.00;1.50;;;16.50;99.90;;;;;;5043362;28;20124;-64
2023/08/27 10:34:11;;;;;;;3.00;1.83;;;16.50;99.90;;;;;;5046013;28;20040;-64
2023/08/27 10:36:45;;;;;;;2.88;1.80;;;16.50;99.90;;;;;;5042344;28;20049;-64
2023/08/27 10:39:20;;;;;;;3.28;1.70;;;16.40;99.90;;;;;;5037063;28;20037;-64
2023/08/27 10:41:53;;;;;;;2.50;1.60;;;16.40;99.90;;;;;;5038252;28;20510;-64
2023/08/27 10:44:24;;;;;;;2.80;1.52;;;16.40;99.90;;;;;;5049611;28;20045;-64
2023/08/27 10:47:14;;;;;;;3.22;1.67;;;16.40;99.90;;;;;;5038198;28;20064;-64
2023/08/27 10:49:49;;;;;;;3.75;1.95;;;16.50;99.90;;;;;;5047819;28;20041;-63
2023/08/27 10:52:25;;;;;;;3.03;1.50;;;16.40;99.90;;;;;;5033540;28;20133;-64
2023/08/27 10:54:59;;;;;;;1.55;1.10;;;16.40;99.90;;;;;;5030995;28;20041;-64
2023/08/27 10:57:36;;;;;;;2.65;0.90;;;16.50;99.90;;;;;;5038053;28;20048;-64
2023/08/27 11:00:12;;;;;;;2.25;1.50;;;16.50;99.90;;;;;;5058746;22;20136;-64
2023/08/27 11:02:58;;;;;;;3.38;1.38;;;16.50;99.90;;;;;;5037903;28;20046;-64
2023/08/27 11:05:30;;;;;;;1.70;1.20;;;16.50;99.90;;;;;;5042202;28;20037;-63
2023/08/27 11:08:15;;;;;;;3.53;1.33;;;16.50;99.90;;;;;;5046047;28;20132;-63
2023/08/27 11:10:47;;;;;;;1.73;1.08;;;16.50;99.90;;;;;;5038574;28;20080;-64
2023/08/27 11:13:34;;;;;;;1.80;0.95;;;16.50;99.90;;;;;;5036812;28;20505;-64
2023/08/27 11:16:14;;;;;;;1.80;1.15;;;16.40;99.90;;;;;;5034121;28;20052;-64
2023/08/27 11:18:53;;;;;;;1.38;1.02;;;16.40;99.90;;;;;;5032721;28;20524;-64
2023/08/27 11:21:25;;;;;;;1.48;1.10;;;16.30;99.90;;;;;;5033977;28;20520;-64
2023/08/27 11:24:26;;;;;;;1.42;1.05;;;16.30;99.90;;;;;;5043641;28;20065;-64
2023/08/27 11:27:01;;;;;;;1.83;1.10;;;16.30;99.90;;;;;;5038836;28;20033;-64
2023/08/27 11:29:37;;;;;;;2.03;1.15;;;16.30;99.90;;;;;;5041018;28;20029;-63
2023/08/27 11:32:10;;;;;;;1.55;1.10;;;16.30;99.90;;;;;;5032189;28;20416;-64
2023/08/27 11:34:44;;;;;;;1.88;1.30;;;16.30;99.90;;;;;;5036711;28;20461;-63
2023/08/27 11:37:17;;;;;;;2.17;1.10;;;16.30;99.90;;;;;;5038672;28;20136;-64
2023/08/27 11:39:49;;;;;;;2.83;1.00;;;16.30;99.90;;;;;;5017870;28;20042;-64
2023/08/27 11:42:20;;;;;;;2.20;1.27;;;16.30;99.90;;;;;;5044578;28;20060;-64
2023/08/27 11:44:55;;;;;;;1.67;0.95;;;16.20;99.90;;;;;;5034306;28;20049;-64
2023/08/27 11:47:26;;;;;;;3.03;1.33;;;16.20;99.90;;;;;;5037329;28;20044;-63
2023/08/27 11:49:58;;;;;;;2.13;1.30;;;16.30;99.90;;;;;;5039271;28;20117;-64
2023/08/27 11:52:25;;;;;;;1.63;1.00;;;16.30;99.90;;;;;;5041278;28;20132;-63
2023/08/27 11:54:59;;;;;;;2.38;1.30;;;16.40;99.90;;;;;;5039288;28;20401;-64
2023/08/27 11:57:32;;;;;;;;;;;16.40;99.90;;;;;;5037062;28;20038;-64
2023/08/27 12:00:11;;;;;;;2.33;1.10;;;16.40;99.90;;;;;;5039102;28;19924;-64
2023/08/27 12:02:44;;;;;;;2.50;1.10;;;16.50;99.90;;;;;;5045595;28;20291;-64
2023/08/27 12:05:16;;;;;;;1.52;1.33;;;16.60;99.90;;;;;;5039467;28;20045;-64
2023/08/27 12:07:48;;;;;;;1.33;1.23;;;16.60;99.90;;;;;;5036883;28;20383;-64
2023/08/27 12:10:20;;;;;;;2.67;0.88;;;16.70;99.90;;;;;;5040705;28;20279;-64
2023/08/27 12:12:52;;;;;;;1.77;1.25;;;16.80;99.90;;;;;;5040037;28;20048;-64
2023/08/27 12:15:31;;;;;;;1.10;0.90;;;16.80;99.90;;;;;;5041570;28;20120;-64
2023/08/27 12:18:09;;;;;;;1.40;1.15;;;16.70;99.90;;;;;;5037436;28;20041;-64
2023/08/27 12:20:37;;;;;;;2.67;0.80;;;16.70;99.90;;;;;;5037668;28;20098;-64
2023/08/27 12:23:10;;;;;;;2.20;1.02;;;16.70;99.90;;;;;;5033870;28;20048;-64
2023/08/27 12:25:45;;;;;;;1.30;0.90;;;16.70;99.90;;;;;;5033267;28;20037;-64
2023/08/27 12:28:17;;;;;;;1.42;0.80;;;16.60;99.90;;;;;;5032445;28;20091;-64
2023/08/27 12:30:55;;;;;;;1.45;0.93;;;16.70;99.90;;;;;;5045336;28;20048;-64
2023/08/27 12:33:37;;;;;;;1.15;0.90;;;16.60;99.90;;;;;;5041392;28;20042;-64
2023/08/27 12:36:09;;;;;;;1.42;1.20;;;16.70;99.90;;;;;;5039571;28;20033;-64
2023/08/27 12:38:41;;;;;;;1.80;1.35;;;16.70;99.90;;;;;;5041482;28;20114;-64
2023/08/27 12:41:13;;;;;;;1.50;1.10;;;16.70;99.90;;;;;;5037966;28;20418;-64
2023/08/27 12:43:45;;;;;;;1.25;0.85;;;16.70;99.90;;;;;;5035203;28;20049;-64
2023/08/27 12:46:16;;;;;;;2.05;0.82;;;16.80;99.90;;;;;;5042288;28;20048;-64
2023/08/27 12:48:48;;;;;;;1.35;0.73;;;16.80;99.90;;;;;;5031394;28;20045;-64
2023/08/27 12:51:20;;;;;;;1.67;0.90;;;16.70;99.90;;;;;;5033728;28;20569;-64
2023/08/27 12:53:52;;;;;;;2.15;0.85;;;16.60;99.90;;;;;;5049459;28;20417;-64
2023/08/27 12:56:24;;;;;;;2.10;0.90;;;16.60;99.90;;;;;;5041882;28;20040;-64
2023/08/27 12:58:55;;;;;;;1.63;0.88;;;16.60;99.90;;;;;;5044519;28;20055;-64
2023/08/27 13:01:28;;;;;;;3.95;0.90;;;16.70;99.90;;;;;;5046353;28;20126;-64
2023/08/27 13:03:55;;;;;;;1.17;0.80;;;16.80;99.90;;;;;;5041178;28;20045;-64
2023/08/27 13:06:28;;;;;;;1.95;1.02;;;16.90;99.90;;;;;;5041092;28;20053;-64
2023/08/27 13:09:00;;;;;;;2.10;0.80;;;16.80;99.90;;;;;;5034694;28;20049;-64
2023/08/27 13:11:32;;;;;;;4.18;0.95;;;16.70;99.90;;;;;;5036334;28;20041;-64
2023/08/27 13:14:04;;;;;;;1.25;0.80;;;16.70;99.90;;;;;;5036663;28;20205;-64